Latest Coastal Weather Observations for Sunshine Coast Airport

IDQ60701

Issued at 1:12 pm EST Sunday 29 January 2023 (issued every 10 minutes, with the page automatically refreshed every 10 minutes)

About coastal observations | Map of coastal stations | Coastal observations for QLD | Marine services | Other Formats
Station Details ID: 040861 Name: SUNSHINE COAST AIRPORT Lat: -26.60 Lon: 153.09 Height: 3.42 m
Data from the previous 72 hours. | See also: Recent months at Sunshine Coast Airport
Date/Time
EST
Wind Sea
Height
m
Swell Vis
km
Cloud Weather Temp
°C
Press
MSL
hPa
Rain since
9am
mm
Dir  Spd
kts
Gust
kts
Height
m
Period
s
Dir
29/01:00pm NE 11 13 - - - - 10 Clear - 29.3 1013.7 0.0
29/12:30pm NE 11 14 - - - - 10 - - 29.7 1014.0 0.0
29/12:00pm NE 11 13 - - - - 10 - - 29.3 1014.1 0.0
29/11:30am NE 10 12 - - - - 10 - - 29.2 1014.4 0.0
29/11:00am NE 9 13 - - - - 10 - - 29.3 1014.8 0.0
29/10:30am NE 9 11 - - - - 10 - - 28.8 1014.9 0.0
29/10:00am NE 9 12 - - - - 10 - - 29.0 1015.0 0.0
29/09:30am NE 9 11 - - - - 10 - - 28.4 1015.1 0.0
29/09:00am NE 9 10 - - - - 10 - - 28.3 1015.1 0.0
29/08:30am NE 8 10 - - - - 10 - - 28.0 1015.2 0.0
29/08:10am NE 7 9 - - - - 10 Partly cloudy - 27.9 1015.1 0.0
29/08:00am NE 5 7 - - - - 10 Partly cloudy - 27.7 1015.0 0.0
29/07:50am WNW 4 6 - - - - 10 Partly cloudy - 27.3 1015.0 0.0
29/07:30am W 4 6 - - - - 10 Partly cloudy - 26.4 1015.0 0.0
29/07:00am W 4 5 - - - - 10 Partly cloudy - 25.1 1015.0 0.0
29/06:30am W 2 5 - - - - 10 - - 23.3 1014.7 0.0
29/06:00am W 3 4 - - - - 10 Partly cloudy - 22.4 1014.2 0.0
29/05:30am SW 4 5 - - - - 10 Partly cloudy - 22.0 1013.9 0.0
29/05:00am W 3 4 - - - - 10 Partly cloudy - 21.8 1013.5 0.0
29/04:30am W 3 4 - - - - 10 Partly cloudy - 21.9 1013.0 0.0
29/04:00am W 3 4 - - - - 10 Partly cloudy - 22.1 1012.6 0.0
29/03:30am W 3 4 - - - - 10 Partly cloudy - 22.1 1012.4 0.0
29/03:00am W 3 3 - - - - 10 Mostly clear - 22.8 1012.2 0.0
29/02:30am CALM 0 0 - - - - 10 Partly cloudy - 23.0 1012.4 0.0
29/02:00am WNW 4 5 - - - - 10 Partly cloudy - 23.3 1012.6 0.0
29/01:30am NNE 8 10 - - - - 10 Partly cloudy - 24.5 1012.6 0.0
29/01:00am NNE 7 9 - - - - 10 Partly cloudy - 24.7 1012.9 0.0
29/12:30am NNE 9 11 - - - - 10 - - 25.0 1013.0 0.0
29/12:00am NE 9 12 - - - - 10 - - 25.1 1013.4 0.0
 
Date/Time
EST
Wind Sea
Height
m
Swell Vis
km
Cloud Weather Temp
°C
Press
MSL
hPa
Rain since
9am
mm
Dir  Spd
kts
Gust
kts
Height
m
Period
s
Dir
28/11:30pm NE 8 11 - - - - 10 - - 25.1 1013.8 0.0
28/11:00pm NE 9 11 - - - - 10 - - 25.3 1014.0 0.0
28/10:30pm NNE 10 12 - - - - 10 - - 25.4 1014.2 0.0
28/10:00pm NE 10 12 - - - - 10 - - 25.6 1014.6 0.0
28/09:30pm NE 10 13 - - - - 10 - - 25.7 1014.4 0.0
28/09:00pm NE 10 12 - - - - 10 Mostly clear - 25.8 1014.3 0.0
28/08:30pm NE 10 13 - - - - 10 Partly cloudy - 26.0 1014.2 0.0
28/08:00pm NE 7 9 - - - - 10 Partly cloudy - 25.7 1014.0 0.0
28/07:30pm ENE 7 9 - - - - 10 Partly cloudy - 26.0 1013.6 0.0
28/07:00pm ENE 7 9 - - - - 10 - - 25.8 1013.2 0.0
28/06:30pm ENE 7 9 - - - - 10 - - 26.1 1012.9 0.0
28/06:00pm ENE 7 10 - - - - 10 Mostly clear - 27.2 1013.1 0.0
28/05:30pm NE 7 9 - - - - 10 Partly cloudy - 27.5 1012.8 0.0
28/05:00pm NE 6 8 - - - - 10 Partly cloudy - 27.2 1012.8 0.0
28/04:30pm ENE 8 11 - - - - 10 - - 27.1 1012.3 0.0
28/04:00pm E 10 13 - - - - 10 - - 27.2 1012.0 0.0
28/03:30pm ENE 12 15 - - - - 10 - - 27.2 1011.8 0.0
28/03:00pm E 14 18 - - - - 10 - - 28.0 1011.7 0.0
28/02:30pm ENE 12 16 - - - - 10 - - 29.9 1011.8 0.0
28/02:00pm ENE 12 16 - - - - 10 - - 29.5 1011.8 0.0
28/01:30pm E 14 17 - - - - 10 - - 28.6 1012.3 0.0
28/01:00pm E 12 15 - - - - 10 - - 29.7 1012.5 0.0
28/12:30pm ESE 12 17 - - - - 10 - - 28.7 1012.9 0.0
28/12:00pm E 12 14 - - - - 10 Mostly clear - 29.1 1013.0 0.0
28/11:30am ENE 9 12 - - - - 10 - - 29.4 1013.2 0.0
28/11:00am ENE 9 11 - - - - 10 - - 28.3 1013.5 0.0
28/10:30am E 8 10 - - - - 10 - - 28.9 1013.9 0.0
28/10:00am ESE 7 9 - - - - 10 - - 28.4 1014.3 0.0
28/09:30am ESE 6 8 - - - - 10 - - 27.3 1014.5 0.0
28/09:00am ESE 7 9 - - - - 10 Mostly cloudy - 27.9 1014.6 0.0
28/08:30am ESE 6 7 - - - - 10 Partly cloudy - 27.9 1014.6 0.0
28/08:00am SSW 2 5 - - - - 10 Partly cloudy - 28.2 1014.4 0.0
28/07:30am SW 5 7 - - - - 10 - - 26.4 1014.3 0.0
28/07:00am SW 6 8 - - - - 10 - - 24.2 1014.2 0.0
28/06:30am W 5 6 - - - - 10 - - 23.2 1013.6 0.0
28/06:00am WNW 4 5 - - - - 10 - - 22.2 1013.2 0.0
28/05:30am WSW 4 5 - - - - 10 Partly cloudy - 21.4 1012.7 0.0
28/05:00am SW 3 3 - - - - 10 Partly cloudy - 21.8 1012.5 0.0
28/04:30am W 4 6 - - - - 10 Partly cloudy - 22.3 1012.3 0.0
28/04:00am SSW 4 5 - - - - 10 - - 22.8 1012.0 0.0
28/03:30am W 3 4 - - - - 10 Partly cloudy - 23.2 1011.8 0.0
28/03:00am W 3 4 - - - - 10 Partly cloudy - 23.2 1012.1 0.0
28/02:44am W 4 5 - - - - 10 Partly cloudy - 23.2 1012.1 0.0
28/02:30am W 4 6 - - - - 10 Partly cloudy - 23.3 1012.2 0.0
28/02:00am WNW 4 5 - - - - 10 Partly cloudy - 23.2 1012.1 0.0
28/01:30am NW 5 6 - - - - 10 Partly cloudy - 23.2 1012.2 0.0
28/01:00am W 4 4 - - - - 10 Partly cloudy - 23.5 1012.5 0.0
28/12:59am W 4 5 - - - - 10 Partly cloudy - 23.5 1012.5 0.0
28/12:30am WNW 3 4 - - - - 10 - - 23.2 1012.5 0.0
28/12:00am CALM 0 5 - - - - 10 Cloudy - 23.2 1012.8 0.0
 
Date/Time
EST
Wind Sea
Height
m
Swell Vis
km
Cloud Weather Temp
°C
Press
MSL
hPa
Rain since
9am
mm
Dir  Spd
kts
Gust
kts
Height
m
Period
s
Dir
27/11:30pm NW 2 3 - - - - 10 - - 24.0 1013.3 0.0
27/11:00pm NW 3 4 - - - - 10 - - 23.7 1013.4 0.0
27/10:30pm NW 3 4 - - - - 10 - - 23.6 1013.2 0.0
27/10:00pm NW 4 4 - - - - 10 - - 23.4 1013.5 0.0
27/09:30pm NW 4 4 - - - - 10 - - 23.5 1013.2 0.0
27/09:00pm NW 4 5 - - - - 10 Cloudy - 23.7 1013.0 0.0
27/08:30pm NNW 3 4 - - - - 10 - - 23.6 1013.0 0.0
27/08:00pm N 4 5 - - - - 10 - - 24.1 1012.8 0.0
27/07:30pm N 4 5 - - - - 10 - - 24.7 1012.8 0.0
27/07:00pm N 5 8 - - - - 10 Partly cloudy - 25.1 1012.7 0.0
27/06:30pm N 6 9 - - - - 10 Partly cloudy - 25.5 1012.6 0.0
27/06:00pm NNE 10 13 - - - - 10 Mostly cloudy - 25.9 1012.4 0.0
27/05:30pm NNE 10 13 - - - - 10 - - 26.0 1012.5 0.0
27/05:00pm NNE 11 13 - - - - 10 - - 26.3 1012.4 0.0
27/04:30pm ENE 7 9 - - - - 10 - - 27.2 1012.0 0.0
27/04:00pm SE 9 11 - - - - 10 - - 27.4 1011.8 0.0
27/03:30pm SE 8 11 - - - - 10 - - 28.2 1011.9 0.0
27/03:00pm SE 9 13 - - - - 10 Mostly cloudy - 28.0 1012.2 0.0
27/02:30pm ESE 6 8 - - - - 10 - - 28.1 1012.4 0.0
27/02:00pm ESE 6 9 - - - - 10 - - 28.1 1012.8 0.0
27/01:30pm E 7 8 - - - - 10 - - 27.7 1013.3 0.0
27/01:00pm E 5 7 - - - - 10 - - 27.8 1013.6 0.0
27/12:30pm ESE 5 8 - - - - 10 - - 27.2 1013.9 0.0
27/12:00pm E 7 9 - - - - 10 Mostly cloudy - 27.2 1014.2 0.0
27/11:30am E 5 7 - - - - 10 - - 27.0 1014.7 0.0
27/11:00am SE 6 8 - - - - 10 - - 26.7 1014.7 0.0
27/10:30am SE 8 11 - - - - 10 - - 27.5 1015.0 0.0
27/10:00am SSE 8 12 - - - - 10 - - 27.5 1014.9 0.0
27/09:30am E 5 7 - - - - 10 - - 27.5 1015.0 0.0
27/09:00am SSE 4 7 - - - - 10 Cloudy - 28.0 1015.2 0.0
27/08:30am WSW 3 4 - - - - 10 - - 27.4 1015.2 0.0
27/08:00am NW 4 6 - - - - 10 - - 25.8 1014.8 0.0
27/07:30am NNW 5 8 - - - - 10 - - 25.5 1014.3 0.0
27/07:00am NNW 5 7 - - - - 10 - - 24.9 1014.2 0.0
27/06:30am NNW 5 7 - - - - 10 - - 23.9 1013.9 0.0
27/06:00am NNW 5 7 - - - - 10 Cloudy - 23.4 1013.8 0.0
27/05:30am NNW 6 8 - - - - 10 - - 23.0 1013.4 0.0
27/05:00am NNW 6 7 - - - - 10 - - 22.7 1013.3 0.0
27/04:30am NNW 7 9 - - - - 10 - - 22.7 1013.0 0.0
27/04:00am NW 6 7 - - - - 10 - - 22.3 1012.8 0.0
27/03:30am NNW 4 4 - - - - 10 - - 22.4 1012.3 0.0
27/03:00am N 4 5 - - - - 10 Cloudy - 22.6 1011.9 0.0
27/02:30am NNW 5 6 - - - - 10 - - 22.6 1012.2 0.0
27/02:00am NNW 3 4 - - - - 10 - - 23.0 1012.6 0.0
27/01:30am CALM 0 2 - - - - 10 - - 23.6 1012.9 0.0
27/01:00am NW 3 4 - - - - 10 Partly cloudy - 23.8 1013.1 0.0
27/12:30am N 4 6 - - - - 10 Partly cloudy - 23.3 1013.2 0.0
27/12:00am N 4 5 - - - - 10 Cloudy - 23.6 1013.4 0.0
 
Date/Time
EST
Wind Sea
Height
m
Swell Vis
km
Cloud Weather Temp
°C
Press
MSL
hPa
Rain since
9am
mm
Dir  Spd
kts
Gust
kts
Height
m
Period
s
Dir
26/11:30pm NNW 5 7 - - - - 10 - - 23.6 1013.4 0.0
26/11:00pm NNW 5 7 - - - - 10 - - 23.6 1013.6 0.0
26/10:30pm NNW 7 8 - - - - 10 - - 24.0 1013.5 0.0
26/10:00pm NNW 6 8 - - - - 10 - - 24.4 1013.8 0.0
26/09:30pm NNW 6 8 - - - - 10 - - 24.7 1013.7 0.0
26/09:00pm NNW 8 12 - - - - 10 Cloudy - 25.2 1013.6 0.0
26/08:30pm N 8 12 - - - - 10 - - 25.3 1013.3 0.0
26/08:00pm N 7 10 - - - - 10 - - 25.2 1013.3 0.0
26/07:30pm N 9 12 - - - - 10 - - 25.8 1013.2 0.0
26/07:00pm N 9 13 - - - - 10 - - 25.9 1012.7 0.0
26/06:30pm NNE 11 15 - - - - 10 - - 26.1 1012.4 0.0
26/06:00pm NNE 13 16 - - - - 10 Mostly cloudy - 26.7 1012.4 0.0
26/05:30pm NNE 14 17 - - - - 10 - - 27.1 1011.9 0.0
26/05:00pm NNE 12 16 - - - - 10 - - 27.7 1011.8 0.0
26/04:30pm NNE 11 16 - - - - 10 - - 27.5 1011.6 0.0
26/04:00pm NNE 12 17 - - - - 10 - - 27.5 1011.5 0.0
26/03:30pm NNE 13 17 - - - - 10 - - 28.0 1012.0 0.0
26/03:00pm NE 14 17 - - - - 10 - - 29.1 1012.1 0.0
26/02:30pm NE 14 17 - - - - 10 - - 29.4 1012.2 0.0
26/02:00pm NE 14 16 - - - - 10 - - 29.5 1012.5 0.0
26/01:30pm NE 13 16 - - - - 10 - - 29.0 1012.7 0.0

Other formats

Comma delimited format used in spreadsheet applications
http://www.bom.gov.au/fwo/IDQ60701/IDQ60701.94569.axf

JavaScript Object Notation format (JSON) in row-major order
http://www.bom.gov.au/fwo/IDQ60701/IDQ60701.94569.json

Data quality

Most of these data are generated automatically and are frequently updated. Quality checks on data are not normally performed. It is possible for incorrect values to appear. Refer to information at About Latest Weather Observations and please check the disclaimer before using these data.